TimeCST,TemperatureF,Dew PointF,Humidity,Sea Level PressureIn,VisibilityMPH,Wind Direction,Wind SpeedMPH,Gust SpeedMPH,PrecipitationIn,Events,Conditions,WindDirDegrees,DateUTC
12:13 AM,19.4,10.4,68,29.50,7.0,SSW,13.8,20.7,N/A,Snow,Light Snow,210,2013-01-16 06:13:00
12:33 AM,19.4,12.2,74,29.48,5.0,SSW,16.1,23.0,N/A,Snow,Light Snow,200,2013-01-16 06:33:00
12:53 AM,19.4,15.8,86,29.46,2.5,SSW,15.0,21.9,N/A,Snow,Light Snow,200,2013-01-16 06:53:00
1:13 AM,19.4,15.8,86,29.44,2.5,SSW,15.0,18.4,N/A,Snow,Light Snow,200,2013-01-16 07:13:00
1:32 AM,19.4,15.8,86,29.43,1.8,SSW,11.5,21.9,N/A,Snow,Light Snow,210,2013-01-16 07:32:00
1:53 AM,19.4,17.6,93,29.41,1.2,SSW,11.5,24.2,N/A,Snow,Light Snow,210,2013-01-16 07:53:00
2:13 AM,19.4,17.6,93,29.42,1.5,SW,16.1,24.2,N/A,Snow,Light Snow,220,2013-01-16 08:13:00
2:33 AM,19.4,17.6,93,29.42,1.2,SW,13.8,21.9,N/A,Snow,Light Snow,220,2013-01-16 08:33:00
2:53 AM,19.4,17.6,93,29.42,2.5,SW,11.5,16.1,0.01,Snow,Light Snow,220,2013-01-16 08:53:00
3:12 AM,19.4,17.6,93,29.42,4.0,SW,11.5,17.3,N/A,Snow,Light Snow,230,2013-01-16 09:12:00
3:33 AM,21.2,19.4,93,29.42,3.0,WSW,10.4,-,N/A,Snow,Light Snow,240,2013-01-16 09:33:00
3:52 AM,21.2,19.4,93,29.41,3.0,SW,10.4,17.3,N/A,Snow,Light Snow,230,2013-01-16 09:52:00
4:13 AM,21.2,19.4,93,29.41,2.5,WSW,10.4,16.1,N/A,Snow,Light Snow,250,2013-01-16 10:13:00
4:32 AM,21.2,21.2,100,29.41,3.0,WSW,9.2,17.3,N/A,Snow,Light Snow,240,2013-01-16 10:32:00
4:53 AM,21.2,19.4,93,29.41,10.0,WSW,9.2,-,N/A,,Overcast,250,2013-01-16 10:53:00
5:13 AM,21.2,21.2,100,29.41,10.0,WSW,10.4,20.7,N/A,,Overcast,250,2013-01-16 11:13:00
5:32 AM,21.2,21.2,100,29.41,7.0,West,10.4,17.3,N/A,,Overcast,270,2013-01-16 11:32:00
5:53 AM,21.2,21.2,100,29.43,5.0,West,10.4,16.1,N/A,,Overcast,270,2013-01-16 11:53:00
6:13 AM,21.2,21.2,100,29.43,7.0,West,8.1,-,N/A,,Overcast,270,2013-01-16 12:13:00
6:32 AM,23.0,21.2,93,29.44,7.0,WNW,8.1,17.3,N/A,,Overcast,290,2013-01-16 12:32:00
6:53 AM,21.2,21.2,100,29.46,10.0,WNW,9.2,18.4,N/A,,Overcast,290,2013-01-16 12:53:00
7:13 AM,21.2,19.4,93,29.48,10.0,NW,12.7,18.4,N/A,,Overcast,310,2013-01-16 13:13:00
7:32 AM,21.2,19.4,93,29.49,10.0,NW,15.0,23.0,N/A,,Overcast,310,2013-01-16 13:32:00
7:53 AM,21.2,17.6,86,29.51,10.0,NW,13.8,20.7,N/A,,Overcast,310,2013-01-16 13:53:00
8:13 AM,19.4,17.6,93,29.52,10.0,WNW,12.7,20.7,N/A,Snow,Light Snow,300,2013-01-16 14:13:00
8:32 AM,19.4,17.6,93,29.53,7.0,NW,11.5,16.1,N/A,Snow,Light Snow,310,2013-01-16 14:32:00
8:53 AM,19.4,15.8,86,29.55,4.0,NNW,11.5,18.4,N/A,Snow,Light Snow,330,2013-01-16 14:53:00
9:13 AM,17.6,15.8,93,29.56,5.0,WNW,13.8,20.7,N/A,Snow,Light Snow,300,2013-01-16 15:13:00
9:33 AM,17.6,14.0,86,29.58,2.0,NW,9.2,17.3,N/A,Snow,Light Snow,320,2013-01-16 15:33:00
9:53 AM,17.6,12.2,79,29.59,3.0,NW,13.8,19.6,N/A,Snow,Light Snow,310,2013-01-16 15:53:00
10:13 AM,17.6,12.2,79,29.60,2.5,NW,11.5,17.3,N/A,Snow,Light Snow,320,2013-01-16 16:13:00
10:33 AM,17.6,10.4,73,29.61,4.0,NW,11.5,18.4,N/A,Snow,Light Snow,320,2013-01-16 16:33:00
10:53 AM,15.8,10.4,79,29.63,3.0,NW,15.0,21.9,N/A,Snow,Light Snow,320,2013-01-16 16:53:00
11:13 AM,15.8,10.4,79,29.64,4.0,NW,12.7,19.6,N/A,Snow,Light Snow,320,2013-01-16 17:13:00
11:33 AM,15.8,8.6,73,29.65,10.0,WNW,12.7,18.4,N/A,Snow,Light Snow,300,2013-01-16 17:33:00
11:53 AM,15.8,6.8,68,29.66,10.0,WNW,13.8,21.9,N/A,,Scattered Clouds,300,2013-01-16 17:53:00
12:13 PM,17.6,6.8,63,29.67,10.0,WNW,11.5,19.6,N/A,,Scattered Clouds,300,2013-01-16 18:13:00
12:32 PM,15.8,3.2,58,29.68,10.0,NW,13.8,23.0,N/A,,Scattered Clouds,320,2013-01-16 18:32:00
12:53 PM,15.8,5.0,62,29.69,10.0,NNW,13.8,21.9,N/A,,Scattered Clouds,330,2013-01-16 18:53:00
1:13 PM,14.0,3.2,62,29.70,10.0,NW,15.0,24.2,N/A,,Scattered Clouds,320,2013-01-16 19:13:00
1:32 PM,12.2,1.4,62,29.71,10.0,NW,11.5,23.0,N/A,,Scattered Clouds,320,2013-01-16 19:32:00
1:53 PM,12.2,1.4,62,29.73,10.0,WNW,18.4,27.6,N/A,,Clear,300,2013-01-16 19:53:00
2:13 PM,12.2,1.4,62,29.75,10.0,NW,9.2,20.7,N/A,,Clear,310,2013-01-16 20:13:00
2:32 PM,12.2,1.4,62,29.77,10.0,NW,11.5,21.9,N/A,,Clear,310,2013-01-16 20:32:00
2:53 PM,10.4,-0.4,62,29.79,10.0,NW,15.0,21.9,N/A,,Clear,310,2013-01-16 20:53:00
3:13 PM,10.4,-0.4,62,29.81,10.0,NW,16.1,23.0,N/A,,Clear,310,2013-01-16 21:13:00
3:32 PM,10.4,-2.2,57,29.82,10.0,NW,15.0,20.7,N/A,,Clear,320,2013-01-16 21:32:00
3:53 PM,8.6,-2.2,62,29.84,10.0,WNW,12.7,18.4,N/A,,Clear,300,2013-01-16 21:53:00
4:12 PM,8.6,-0.4,67,29.86,10.0,NNW,6.9,19.6,N/A,,Scattered Clouds,330,2013-01-16 22:12:00
4:33 PM,8.6,-4.0,57,29.88,10.0,NW,8.1,19.6,N/A,,Scattered Clouds,310,2013-01-16 22:33:00
4:53 PM,6.8,-5.8,56,29.90,10.0,NNW,11.5,17.3,N/A,,Clear,330,2013-01-16 22:53:00
5:12 PM,5.0,-7.6,56,29.91,10.0,NW,8.1,19.6,N/A,,Clear,320,2013-01-16 23:12:00
5:33 PM,3.2,-9.4,56,29.93,10.0,NW,8.1,-,N/A,,Clear,320,2013-01-16 23:33:00
5:53 PM,3.2,-9.4,56,29.95,10.0,NW,6.9,-,N/A,,Clear,320,2013-01-16 23:53:00
6:12 PM,1.4,-7.6,66,29.96,10.0,NW,8.1,-,N/A,,Clear,320,2013-01-17 00:12:00
6:33 PM,1.4,-7.6,66,29.99,10.0,NW,15.0,21.9,N/A,,Scattered Clouds,320,2013-01-17 00:33:00
6:53 PM,1.4,-9.4,61,30.00,10.0,NW,10.4,20.7,N/A,,Clear,320,2013-01-17 00:53:00
7:13 PM,-0.4,-9.4,66,30.02,10.0,NW,5.8,-,N/A,,Clear,310,2013-01-17 01:13:00
7:33 PM,-0.4,-9.4,66,30.02,10.0,NNW,8.1,-,N/A,,Clear,330,2013-01-17 01:33:00
7:53 PM,-2.2,-11.2,66,30.03,10.0,NW,10.4,18.4,N/A,,Clear,320,2013-01-17 01:53:00
8:13 PM,-2.2,-11.2,66,30.04,10.0,NW,8.1,-,N/A,,Clear,320,2013-01-17 02:13:00
8:33 PM,-2.2,-11.2,66,30.05,10.0,NW,9.2,-,N/A,,Clear,320,2013-01-17 02:33:00
8:53 PM,-4.0,-11.2,71,30.05,10.0,NNW,6.9,-,N/A,,Clear,330,2013-01-17 02:53:00
9:13 PM,-5.8,-11.2,77,30.06,10.0,NW,4.6,-,N/A,,Scattered Clouds,320,2013-01-17 03:13:00
9:33 PM,-5.8,-11.2,77,30.07,10.0,NW,3.5,-,N/A,,Scattered Clouds,320,2013-01-17 03:33:00
9:52 PM,-5.8,-11.2,77,30.07,10.0,NW,3.5,-,N/A,,Clear,310,2013-01-17 03:52:00
10:13 PM,-5.8,-11.2,77,30.06,10.0,NNW,5.8,-,N/A,,Clear,340,2013-01-17 04:13:00
10:33 PM,-7.6,-11.2,84,30.08,10.0,WNW,4.6,-,N/A,,Clear,300,2013-01-17 04:33:00
10:52 PM,-7.6,-13.0,77,30.10,10.0,WNW,4.6,-,N/A,,Clear,290,2013-01-17 04:52:00
11:13 PM,-7.6,-13.0,77,30.11,7.0,NW,5.8,-,N/A,,Clear,310,2013-01-17 05:13:00
11:33 PM,-7.6,-14.8,71,30.11,10.0,West,3.5,-,N/A,,Clear,280,2013-01-17 05:33:00
11:52 PM,-9.4,-14.8,77,30.13,10.0,WNW,5.8,-,N/A,,Clear,290,2013-01-17 05:52:00